Time;durP1;ratioP1;P1;durP2;ratioP2;P2;SDS_P1;SDS_P2;PMS_P1;PMS_P2;Temp;Humidity;BMP_temperature;BMP_pressure;BME280_temperature;BME280_humidity;BME280_pressure;Samples;Min_cycle;Max_cycle;Signal;HPM_P1;HPM_P2
2022/08/25 00:00:25;;;;;;;16.83;10.73;;;;;;;25.12;53.19;94929.66;6159980;28;103087;-56
2022/08/25 00:03:32;;;;;;;23.60;14.50;;;;;;;25.06;54.05;94929.09;6173238;28;102872;-57
2022/08/25 00:06:48;;;;;;;18.40;13.00;;;;;;;24.92;54.40;94933.91;6172970;28;103001;-57
2022/08/25 00:09:54;;;;;;;18.50;8.60;;;;;;;24.78;54.51;94936.84;6128453;28;102724;-57
2022/08/25 03:09:51;;;;;;;16.90;15.10;;;;;;;25.01;53.99;94908.63;6078859;28;103346;-58
2022/08/25 03:12:54;;;;;;;16.87;15.10;;;;;;;25.03;53.98;94900.28;6125816;28;104654;-61
2022/08/25 03:15:58;;;;;;;19.27;17.27;;;;;;;25.03;54.16;94890.38;6135969;28;103872;-57
2022/08/25 03:19:01;;;;;;;17.60;15.80;;;;;;;25.03;54.21;94893.03;6114061;28;102939;-57
2022/08/25 03:22:07;;;;;;;17.80;15.90;;;;;;;25.04;54.48;94896.50;6101918;28;102888;-58
2022/08/25 03:28:32;;;;;;;14.50;12.40;;;;;;;24.77;55.52;94897.81;6125987;28;103226;-58
2022/08/25 03:31:36;;;;;;;16.50;10.87;;;;;;;24.61;55.69;94908.28;6120904;28;103038;-58
2022/08/25 03:34:40;;;;;;;14.73;10.67;;;;;;;24.76;55.12;94907.72;6114059;28;102867;-58
2022/08/25 03:37:43;;;;;;;15.73;12.00;;;;;;;24.90;54.44;94896.00;6133305;28;103947;-58
2022/08/25 03:40:48;;;;;;;15.60;12.60;;;;;;;24.99;54.57;94905.50;6134063;28;105194;-56
2022/08/25 03:43:52;;;;;;;14.67;11.00;;;;;;;24.89;55.01;94899.78;6111955;28;103513;-59
2022/08/25 03:46:55;;;;;;;16.20;10.77;;;;;;;24.89;54.67;94892.53;6122758;28;103496;-59
2022/08/25 03:49:58;;;;;;;18.73;16.40;;;;;;;24.83;55.33;94880.44;6136345;28;102897;-59
2022/08/25 03:53:01;;;;;;;12.30;10.23;;;;;;;24.71;55.79;94880.38;6130865;28;103161;-58
2022/08/25 03:56:06;;;;;;;16.87;10.73;;;;;;;24.81;55.35;94881.88;6121096;28;103565;-71
2022/08/25 03:59:09;;;;;;;17.27;9.90;;;;;;;24.70;55.32;94884.19;6126257;28;103996;-59
2022/08/25 04:02:12;;;;;;;17.80;9.37;;;;;;;24.45;56.23;94902.69;6139640;28;104101;-58
2022/08/25 04:05:16;;;;;;;13.53;10.07;;;;;;;24.37;56.46;94895.53;6137879;28;103909;-58
2022/08/25 04:08:19;;;;;;;18.37;10.07;;;;;;;24.55;55.99;94906.91;6118386;28;104098;-60
2022/08/25 04:11:24;;;;;;;14.43;8.97;;;;;;;24.75;55.27;94881.28;6125651;28;104421;-61
2022/08/25 04:14:27;;;;;;;17.23;10.17;;;;;;;24.93;56.92;94889.97;6128380;28;104361;-57
2022/08/25 04:17:31;;;;;;;17.33;9.87;;;;;;;25.08;56.28;94887.47;6130391;28;102989;-60
2022/08/25 04:20:34;;;;;;;19.50;10.37;;;;;;;25.16;56.58;94883.16;6124900;28;104575;-59
2022/08/25 04:23:39;;;;;;;12.27;9.53;;;;;;;25.02;55.46;94882.63;6138644;28;103377;-59
2022/08/25 04:26:47;;;;;;;14.57;9.00;;;;;;;24.97;55.25;94872.91;6140001;28;104862;-59
2022/08/25 04:29:50;;;;;;;20.17;9.63;;;;;;;24.79;55.71;94877.63;6135315;28;104547;-60
2022/08/25 04:32:53;;;;;;;12.30;9.17;;;;;;;24.80;55.44;94875.75;6135924;28;104274;-60
2022/08/25 04:35:57;;;;;;;13.70;9.70;;;;;;;24.80;55.85;94883.75;6140152;28;104029;-61
2022/08/25 04:39:01;;;;;;;17.13;9.53;;;;;;;24.80;55.99;94889.13;6139197;28;104465;-60
2022/08/25 04:42:06;;;;;;;13.83;9.87;;;;;;;24.62;56.47;94891.09;6128496;28;103177;-58
2022/08/25 04:45:09;;;;;;;13.13;9.87;;;;;;;24.43;56.79;94907.59;6138745;28;103906;-59
2022/08/25 04:48:12;;;;;;;12.23;9.83;;;;;;;24.37;57.00;94892.84;6139381;28;103346;-60
2022/08/25 04:51:18;;;;;;;15.57;10.13;;;;;;;24.46;56.67;94898.91;6139539;28;102907;-60
2022/08/25 04:54:21;;;;;;;12.73;10.37;;;;;;;24.64;56.33;94902.28;6130699;28;103914;-60
2022/08/25 04:57:26;;;;;;;16.30;9.40;;;;;;;24.78;55.44;94902.06;6139700;28;103240;-71
2022/08/25 05:00:29;;;;;;;13.60;9.60;;;;;;;24.84;55.52;94898.06;6140754;28;103079;-61
2022/08/25 05:03:33;;;;;;;10.57;9.07;;;;;;;24.92;55.24;94899.13;6141337;28;103561;-60
2022/08/25 05:06:37;;;;;;;17.03;9.47;;;;;;;24.94;55.43;94904.94;6132246;28;103313;-60
2022/08/25 05:09:40;;;;;;;13.83;9.27;;;;;;;24.97;55.07;94898.91;6139652;28;104355;-60
2022/08/25 05:12:45;;;;;;;14.10;9.90;;;;;;;24.96;55.62;94895.44;6140588;28;103069;-60
2022/08/25 05:15:53;;;;;;;14.17;10.57;;;;;;;25.01;55.41;94886.44;6131380;28;104125;-59
2022/08/25 05:18:57;;;;;;;14.43;9.73;;;;;;;25.03;55.18;94890.38;6139275;28;103817;-59
2022/08/25 05:22:00;;;;;;;14.63;9.43;;;;;;;25.03;54.83;94876.97;6140631;28;103999;-60
2022/08/25 05:25:03;;;;;;;11.87;9.73;;;;;;;25.02;55.31;94878.06;6140227;28;102999;-60
2022/08/25 05:28:08;;;;;;;11.90;9.97;;;;;;;25.04;55.23;94873.19;6129768;28;103516;-60
2022/08/25 05:31:13;;;;;;;10.30;9.20;;;;;;;25.06;54.73;94880.88;6139940;28;103924;-59
2022/08/25 05:34:18;;;;;;;15.77;11.07;;;;;;;25.05;55.43;94885.47;6139037;28;104115;-60
2022/08/25 05:37:21;;;;;;;14.23;11.30;;;;;;;25.05;54.79;94877.44;6139878;28;104182;-67
2022/08/25 05:40:25;;;;;;;13.77;11.20;;;;;;;25.04;55.32;94878.53;6128192;28;104121;-60
2022/08/25 05:43:30;;;;;;;11.27;10.07;;;;;;;25.05;54.99;94890.03;6139241;28;103015;-60
2022/08/25 05:46:33;;;;;;;13.77;11.63;;;;;;;25.05;54.98;94879.31;6139091;28;103118;-60
2022/08/25 05:49:36;;;;;;;11.87;10.73;;;;;;;25.08;55.02;94876.00;6134156;28;104229;-60
2022/08/25 05:52:40;;;;;;;15.17;11.20;;;;;;;25.09;54.94;94883.69;6134211;28;103105;-61
2022/08/25 05:55:44;;;;;;;13.23;10.77;;;;;;;25.10;54.81;94879.13;6138910;28;103424;-61
2022/08/25 05:58:50;;;;;;;12.53;9.57;;;;;;;25.10;54.64;94884.47;6139632;28;103056;-67
2022/08/25 06:05:16;;;;;;;10.30;9.07;;;;;;;25.14;54.15;94884.59;6138549;28;103230;-59
2022/08/25 06:08:20;;;;;;;11.50;9.70;;;;;;;25.16;54.37;94887.72;6139060;28;103435;-59
2022/08/25 06:11:23;;;;;;;14.30;9.63;;;;;;;25.17;53.94;94883.94;6138586;28;103114;-61
2022/08/25 06:14:28;;;;;;;17.50;11.67;;;;;;;25.19;54.12;94892.41;6128539;28;104081;-62
2022/08/25 06:17:31;;;;;;;10.77;9.67;;;;;;;25.21;54.15;94885.63;6138335;28;104331;-60
2022/08/25 06:20:34;;;;;;;12.93;9.30;;;;;;;25.21;53.81;94879.50;6138918;28;103642;-58
2022/08/25 06:23:38;;;;;;;12.17;9.80;;;;;;;25.23;53.83;94882.63;6133624;28;103262;-59
2022/08/25 06:26:41;;;;;;;12.70;10.00;;;;;;;25.24;54.09;94874.25;6133373;28;102858;-59
2022/08/25 06:29:46;;;;;;;17.03;9.40;;;;;;;25.29;53.76;94879.41;6138410;28;103386;-59
2022/08/25 06:32:49;;;;;;;13.67;8.80;;;;;;;25.24;54.32;94884.97;6140335;28;102972;-59
2022/08/25 06:35:55;;;;;;;12.77;9.03;;;;;;;25.30;53.45;94885.53;6128648;28;103055;-60
2022/08/25 06:38:59;;;;;;;15.83;9.73;;;;;;;25.32;53.67;94876.06;6139464;28;102838;-59
2022/08/25 06:42:02;;;;;;;11.00;9.13;;;;;;;25.38;53.55;94874.00;6138253;28;103996;-57
2022/08/25 06:45:10;;;;;;;11.47;9.40;;;;;;;25.42;52.93;94880.25;6138218;28;102988;-60
2022/08/25 06:48:13;;;;;;;9.30;8.37;;;;;;;25.47;52.92;94881.94;6129789;28;104953;-61
2022/08/25 06:51:19;;;;;;;10.17;9.17;;;;;;;25.52;53.18;94885.19;6137894;28;103003;-59
2022/08/25 06:54:23;;;;;;;14.30;9.67;;;;;;;25.57;52.98;94893.03;6139026;28;104288;-61
2022/08/25 06:57:32;;;;;;;10.70;9.27;;;;;;;25.58;53.34;94891.91;6133656;28;104003;-62
2022/08/25 07:00:37;;;;;;;15.53;9.70;;;;;;;25.59;53.08;94885.44;6133355;28;104916;-59
2022/08/25 07:03:41;;;;;;;9.17;8.37;;;;;;;25.59;53.63;94890.81;6138074;28;104107;-60
2022/08/25 07:06:44;;;;;;;10.70;9.50;;;;;;;25.60;52.88;94887.00;6138387;28;103498;-59
2022/08/25 07:09:47;;;;;;;10.43;9.00;;;;;;;25.61;53.16;94888.56;6127103;28;104015;-59
2022/08/25 07:12:50;;;;;;;10.77;8.70;;;;;;;25.60;53.22;94883.53;6138348;28;104389;-58
2022/08/25 07:15:55;;;;;;;10.03;9.00;;;;;;;25.59;52.97;94890.81;6138077;28;103875;-58
2022/08/25 07:19:00;;;;;;;11.37;9.03;;;;;;;25.64;53.19;94885.22;6136941;28;103073;-57
2022/08/25 07:22:04;;;;;;;13.67;8.77;;;;;;;25.66;52.50;94887.56;6127427;28;104057;-58
2022/08/25 07:25:09;;;;;;;14.17;8.57;;;;;;;25.65;52.84;94877.97;6137953;28;103881;-56
2022/08/25 07:28:14;;;;;;;13.10;8.70;;;;;;;25.68;52.42;94886.13;6138595;28;104165;-58
2022/08/25 07:31:18;;;;;;;11.87;8.10;;;;;;;25.65;52.30;94881.44;6137497;28;103732;-58
2022/08/25 07:37:50;;;;;;;13.87;8.60;;;;;;;25.72;52.74;94878.22;6141827;28;103399;-59
2022/08/25 07:41:01;;;;;;;18.10;8.40;;;;;;;25.66;52.22;94882.97;6142044;28;103947;-58
2022/08/25 07:44:05;;;;;;;9.97;7.60;;;;;;;25.68;51.90;94875.38;6131368;28;103130;-59
2022/08/25 07:47:09;;;;;;;13.50;8.07;;;;;;;25.64;52.04;94877.19;6141807;28;103439;-57
2022/08/25 07:50:13;;;;;;;14.90;8.00;;;;;;;25.65;51.92;94877.97;6141537;28;103032;-58
2022/08/25 07:53:17;;;;;;;11.73;8.20;;;;;;;25.61;51.83;94877.84;6141656;28;103176;-57
2022/08/25 07:56:20;;;;;;;12.30;8.30;;;;;;;25.63;52.25;94880.97;6130154;28;103195;-58
2022/08/25 07:59:23;;;;;;;12.83;7.33;;;;;;;25.66;51.64;94891.03;6141296;28;103202;-58
2022/08/25 08:02:30;;;;;;;14.90;7.67;;;;;;;25.66;52.15;94882.97;6140631;28;103084;-57
2022/08/25 08:05:33;;;;;;;10.50;7.20;;;;;;;25.68;52.08;94880.75;6136851;28;103979;-58
2022/08/25 08:08:37;;;;;;;16.73;8.23;;;;;;;25.74;52.04;94877.88;6135690;28;105195;-58
2022/08/25 08:11:43;;;;;;;14.80;8.27;;;;;;;25.76;52.32;94878.31;6140760;28;103218;-61
2022/08/25 08:14:59;;;;;;;18.30;7.90;;;;;;;25.76;52.10;94871.06;6142027;28;104151;-58
2022/08/25 08:18:05;;;;;;;12.60;8.20;;;;;;;25.72;52.01;94870.16;6133232;28;103327;-58
2022/08/25 08:21:12;;;;;;;17.70;8.77;;;;;;;25.73;51.92;94865.59;6141801;28;104859;-58
2022/08/25 08:24:22;;;;;;;15.73;8.63;;;;;;;25.80;52.06;94858.56;6141821;28;103044;-60
2022/08/25 08:27:46;;;;;;;16.90;9.30;;;;;;;26.04;52.21;94854.34;6138674;28;103413;-56
2022/08/25 08:30:51;;;;;;;15.67;9.60;;;;;;;26.08;52.06;94858.72;6135511;28;103131;-60
2022/08/25 08:33:58;;;;;;;19.40;10.00;;;;;;;26.13;51.64;94850.44;6141465;28;103252;-60
2022/08/25 08:37:03;;;;;;;15.87;9.17;;;;;;;26.32;51.40;94851.75;6140734;28;103013;-60
2022/08/25 08:40:09;;;;;;;13.70;8.17;;;;;;;26.30;49.97;94851.31;6130432;28;105717;-59
2022/08/25 08:43:17;;;;;;;20.93;8.57;;;;;;;26.24;50.63;94851.56;6141542;28;104143;-60
2022/08/25 08:46:22;;;;;;;17.60;7.90;;;;;;;26.06;50.31;94850.22;6140958;28;103026;-58
2022/08/25 08:49:38;;;;;;;19.07;7.23;;;;;;;25.87;49.62;94848.03;6140933;28;103960;-65
2022/08/25 08:52:47;;;;;;;16.77;6.80;;;;;;;25.88;49.45;94843.50;6129360;28;103159;-62
2022/08/25 08:55:54;;;;;;;19.30;7.70;;;;;;;26.02;48.90;94843.94;6140816;28;103425;-58
2022/08/25 08:59:00;;;;;;;17.17;8.17;;;;;;;26.09;49.30;94846.09;6140862;28;104398;-59
2022/08/25 09:02:16;;;;;;;17.53;7.57;;;;;;;26.11;48.96;94847.31;6135659;28;104129;-59
2022/08/25 09:05:45;;;;;;;13.90;6.70;;;;;;;26.15;48.98;94848.19;6140145;28;103031;-62
2022/08/25 09:08:49;;;;;;;18.40;8.07;;;;;;;26.23;49.21;94844.63;6140163;28;102895;-59
2022/08/25 09:12:04;;;;;;;17.07;7.93;;;;;;;26.30;48.38;94843.28;6140224;28;103562;-59
2022/08/25 09:15:19;;;;;;;15.13;7.63;;;;;;;26.31;48.26;94844.81;6131003;28;103507;-59
2022/08/25 09:18:31;;;;;;;15.57;7.77;;;;;;;26.35;48.57;94841.13;6140176;28;102921;-58
2022/08/25 09:21:45;;;;;;;15.50;7.30;;;;;;;26.41;48.36;94841.69;6140479;28;103218;-71
2022/08/25 09:24:58;;;;;;;14.33;8.00;;;;;;;26.45;48.35;94845.25;6135584;28;104479;-62
2022/08/25 09:28:07;;;;;;;13.97;7.27;;;;;;;26.46;48.29;94841.44;6134383;28;103088;-59
2022/08/25 09:31:18;;;;;;;11.50;7.23;;;;;;;26.47;48.38;94832.28;6139134;28;103348;-59
2022/08/25 09:34:24;;;;;;;13.50;7.67;;;;;;;26.48;48.92;94833.84;6140405;28;104130;-59
2022/08/25 09:37:31;;;;;;;11.40;6.83;;;;;;;26.52;48.38;94835.50;6129727;28;104078;-61
2022/08/25 09:40:36;;;;;;;10.73;7.53;;;;;;;26.57;48.26;94831.81;6139919;28;103215;-58
2022/08/25 09:43:44;;;;;;;14.90;7.87;;;;;;;26.59;48.57;94824.22;6139748;28;103102;-59
2022/08/25 09:47:07;;;;;;;14.60;7.73;;;;;;;26.62;48.60;94830.78;6139601;28;102943;-56
2022/08/25 09:50:17;;;;;;;10.80;7.20;;;;;;;26.59;48.30;94834.94;6131133;28;104104;-56
2022/08/25 09:53:23;;;;;;;10.80;7.37;;;;;;;26.53;48.57;94831.69;6138833;28;102908;-58
2022/08/25 09:56:30;;;;;;;16.07;7.77;;;;;;;26.56;48.64;94835.63;6139927;28;104382;-58
2022/08/25 09:59:35;;;;;;;12.50;7.70;;;;;;;26.57;48.30;94837.19;6128927;28;103998;-59
2022/08/25 10:02:38;;;;;;;13.40;7.90;;;;;;;26.54;48.19;94835.16;6139126;28;103438;-74
2022/08/25 10:06:01;;;;;;;14.30;7.50;;;;;;;26.53;48.43;94836.28;6140146;28;103996;-59
2022/08/25 10:09:07;;;;;;;9.80;7.00;;;;;;;26.52;48.69;94835.50;6138511;28;103929;-59
2022/08/25 10:12:19;;;;;;;12.20;7.57;;;;;;;26.50;48.16;94835.06;6128496;28;104311;-59
2022/08/25 10:15:30;;;;;;;9.60;7.37;;;;;;;26.47;48.77;94826.91;6139078;28;104526;-59
2022/08/25 10:18:33;;;;;;;11.70;6.93;;;;;;;26.43;48.13;94826.81;6139290;28;103992;-59
2022/08/25 10:21:38;;;;;;;11.83;7.73;;;;;;;26.42;48.86;94825.25;6134049;28;104194;-59
2022/08/25 10:24:43;;;;;;;9.50;7.30;;;;;;;26.40;48.20;94827.50;6133995;28;107133;-59
2022/08/25 10:27:57;;;;;;;11.10;7.60;;;;;;;26.42;48.47;94824.47;6138241;28;102923;-59
2022/08/25 10:31:09;;;;;;;11.73;7.40;;;;;;;26.42;48.83;94816.44;6138744;28;103471;-59
2022/08/25 10:34:27;;;;;;;13.50;7.03;;;;;;;26.43;48.91;94815.31;6127928;28;103121;-59
2022/08/25 10:37:39;;;;;;;10.10;6.77;;;;;;;26.43;48.47;94805.34;6138605;28;102929;-59
2022/08/25 10:40:50;;;;;;;13.27;7.70;;;;;;;26.44;48.17;94814.97;6138615;28;102896;-59
2022/08/25 10:45:41;;;;;;;14.30;6.73;;;;;;;26.43;48.32;94804.56;6134852;28;103001;-57
2022/08/25 10:48:02;;;;;;;10.10;6.60;;;;;;;26.41;48.19;94801.44;6136590;28;103526;-59
2022/08/25 10:51:24;;;;;;;14.20;6.73;;;;;;;26.39;48.14;94798.31;6139184;28;104028;-59
2022/08/25 10:54:38;;;;;;;8.80;6.53;;;;;;;26.40;48.48;94797.19;6138626;28;104499;-68
2022/08/25 10:57:52;;;;;;;8.70;6.37;;;;;;;26.41;48.04;94799.53;6128518;28;102992;-58
2022/08/25 11:01:04;;;;;;;7.50;6.80;;;;;;;26.41;48.05;94796.09;6138014;28;104144;-59
2022/08/25 11:04:15;;;;;;;10.40;6.40;;;;;;;26.46;48.48;94795.84;6138815;28;103290;-59
2022/08/25 11:07:25;;;;;;;15.20;6.33;;;;;;;26.47;48.19;94786.66;6127770;28;102982;-58
2022/08/25 11:10:40;;;;;;;9.90;5.50;;;;;;;26.47;47.48;94781.28;6137897;28;104176;-57
2022/08/25 11:13:51;;;;;;;9.90;6.20;;;;;;;26.45;48.08;94775.50;6137965;28;103270;-56
2022/08/25 11:17:01;;;;;;;13.43;6.20;;;;;;;26.44;48.05;94771.25;6138866;28;104323;-59
2022/08/25 11:20:11;;;;;;;11.10;6.30;;;;;;;26.42;48.21;94771.59;6127612;28;103235;-58
2022/08/25 11:23:28;;;;;;;10.27;6.57;;;;;;;26.42;47.97;94770.81;6138841;28;102778;-59
2022/08/25 11:26:38;;;;;;;11.40;6.80;;;;;;;26.43;47.42;94767.00;6138765;28;104042;-59
2022/08/25 11:29:49;;;;;;;12.30;7.03;;;;;;;26.40;47.95;94763.09;6132223;28;103153;-59
2022/08/25 11:32:54;;;;;;;10.90;7.30;;;;;;;26.38;48.13;94749.25;6134553;28;104691;-59
2022/08/25 11:36:02;;;;;;;7.63;6.00;;;;;;;26.37;48.30;94752.25;6138052;28;103450;-64
2022/08/25 11:39:16;;;;;;;10.83;6.33;;;;;;;26.34;48.54;94740.28;6138598;28;104018;-59
2022/08/25 11:42:33;;;;;;;8.43;6.40;;;;;;;26.32;48.70;94741.75;6127398;28;103031;-59
2022/08/25 11:46:13;;;;;;;10.67;7.50;;;;;;;26.32;48.27;94741.75;6137958;28;102936;-73
2022/08/25 11:49:40;;;;;;;9.20;6.77;;;;;;;26.38;48.65;94743.88;6130861;28;102973;-57
2022/08/25 11:52:54;;;;;;;10.63;7.40;;;;;;;26.39;48.53;94739.28;6127199;28;102887;-58
2022/08/25 11:56:03;;;;;;;11.70;7.47;;;;;;;26.38;48.38;94735.84;6137338;28;103201;-56
2022/08/25 11:59:06;;;;;;;14.60;9.97;;;;;;;26.36;48.76;94731.91;6137191;28;102967;-55
2022/08/25 12:02:30;;;;;;;11.80;10.20;;;;;;;26.34;48.19;94728.78;6137150;28;104285;-54
2022/08/25 12:05:51;;;;;;;12.87;11.37;;;;;;;26.31;48.93;94732.94;6126867;28;103884;-55
2022/08/25 12:09:17;;;;;;;15.47;11.90;;;;;;;26.30;48.99;94727.91;6136899;28;103753;-55
2022/08/25 12:12:32;;;;;;;15.17;12.57;;;;;;;26.31;48.33;94735.63;6136962;28;103131;-55
2022/08/25 12:15:57;;;;;;;15.53;13.60;;;;;;;26.35;48.33;94733.03;6128650;28;103276;-54
2022/08/25 12:19:25;;;;;;;14.77;13.10;;;;;;;26.37;48.50;94726.19;6141103;28;102989;-56
2022/08/25 12:22:54;;;;;;;14.83;13.20;;;;;;;26.39;48.46;94731.25;6140979;28;103467;-56
2022/08/25 12:26:01;;;;;;;14.03;12.57;;;;;;;26.35;49.01;94743.75;6139444;28;102966;-55
2022/08/25 12:29:11;;;;;;;13.53;11.93;;;;;;;26.31;48.76;94740.97;6135691;28;104066;-58
2022/08/25 12:32:39;;;;;;;15.30;12.73;;;;;;;26.32;48.70;94739.06;6141485;28;103881;-59
2022/08/25 12:35:56;;;;;;;15.40;11.80;;;;;;;26.27;48.58;94729.38;6141238;28;104145;-59
2022/08/25 12:39:18;;;;;;;14.90;11.33;;;;;;;26.27;48.71;94730.16;6130576;28;103268;-61
2022/08/25 12:42:33;;;;;;;12.67;11.47;;;;;;;26.28;48.56;94737.06;6141488;28;103185;-59
2022/08/25 12:45:42;;;;;;;13.50;12.10;;;;;;;26.25;48.76;94727.03;6141358;28;103015;-59
2022/08/25 12:49:11;;;;;;;12.03;10.67;;;;;;;26.26;48.23;94736.63;6137032;28;103478;-58
2022/08/25 12:52:18;;;;;;;11.70;10.60;;;;;;;26.25;48.65;94732.41;6135299;28;104145;-64
2022/08/25 12:55:24;;;;;;;18.30;10.63;;;;;;;26.24;48.27;94724.69;6141362;28;103339;-59
2022/08/25 12:58:35;;;;;;;14.07;10.33;;;;;;;26.27;48.23;94732.84;6140903;28;104182;-59
2022/08/25 13:02:25;;;;;;;10.13;9.23;;;;;;;26.26;48.33;94742.00;6130108;28;103592;-58
2022/08/25 13:05:58;;;;;;;11.37;9.70;;;;;;;26.25;48.19;94740.44;6108762;28;103509;-59
2022/08/25 13:09:25;;;;;;;10.23;9.20;;;;;;;26.24;48.38;94740.78;6140460;28;103074;-61
2022/08/25 13:12:35;;;;;;;10.80;8.73;;;;;;;26.24;48.03;94738.88;6129652;28;105180;-59
2022/08/25 13:15:41;;;;;;;10.87;9.30;;;;;;;26.25;48.25;94740.44;6140900;28;104019;-59
2022/08/25 13:18:49;;;;;;;10.37;9.20;;;;;;;26.25;48.07;94736.97;6141210;28;103246;-59
2022/08/25 13:21:55;;;;;;;10.00;8.70;;;;;;;26.24;48.26;94728.16;6138831;28;102959;-59
2022/08/25 13:25:00;;;;;;;10.10;9.20;;;;;;;26.25;48.40;94728.94;6129706;28;102752;-59
2022/08/25 13:28:05;;;;;;;9.73;8.57;;;;;;;26.26;48.34;94733.19;6140222;28;104474;-60
2022/08/25 13:31:17;;;;;;;11.23;8.07;;;;;;;26.27;48.04;94738.19;6139938;28;103123;-59
2022/08/25 13:34:23;;;;;;;8.70;8.00;;;;;;;26.24;48.08;94728.16;6135351;28;103209;-59
2022/08/25 13:37:37;;;;;;;8.63;7.73;;;;;;;26.24;48.04;94730.84;6135180;28;103090;-66
2022/08/25 13:40:41;;;;;;;12.70;8.20;;;;;;;26.25;47.76;94734.28;6140234;28;104131;-59
2022/08/25 13:43:46;;;;;;;9.80;8.83;;;;;;;26.26;47.56;94731.28;6139548;28;103193;-59
2022/08/25 13:47:05;;;;;;;8.20;7.33;;;;;;;26.24;48.10;94733.53;6129683;28;103966;-59
2022/08/25 13:50:19;;;;;;;14.40;7.93;;;;;;;26.24;47.61;94733.53;6139344;28;103148;-57
2022/08/25 13:53:26;;;;;;;9.17;8.00;;;;;;;26.24;48.04;94733.53;6139785;28;104333;-59
2022/08/25 13:56:37;;;;;;;9.10;7.60;;;;;;;26.23;47.48;94731.97;6139806;28;104070;-59
2022/08/25 13:59:49;;;;;;;11.50;7.60;;;;;;;26.23;47.86;94731.97;6128910;28;103455;-60
2022/08/25 14:02:54;;;;;;;9.50;8.07;;;;;;;26.22;47.82;94730.41;6139693;28;103059;-59
2022/08/25 14:06:05;;;;;;;10.17;7.80;;;;;;;26.24;47.85;94727.38;6139559;28;104309;-59
2022/08/25 14:09:15;;;;;;;8.87;7.90;;;;;;;26.22;47.87;94730.41;6127862;28;103914;-59
2022/08/25 14:12:32;;;;;;;8.47;7.63;;;;;;;26.23;47.95;94734.63;6139280;28;103209;-74
2022/08/25 14:15:37;;;;;;;8.27;7.37;;;;;;;26.21;48.22;94731.53;6139659;28;103989;-59
2022/08/25 14:18:48;;;;;;;8.57;6.80;;;;;;;26.19;48.35;94736.41;6139754;28;104145;-59
2022/08/25 14:21:52;;;;;;;8.53;6.93;;;;;;;26.20;48.21;94737.97;6128795;28;104274;-64
2022/08/25 14:25:01;;;;;;;7.83;7.03;;;;;;;26.17;48.15;94733.28;6137729;28;104000;-59
2022/08/25 14:28:12;;;;;;;8.00;6.93;;;;;;;26.23;48.31;94736.53;6139533;28;104118;-55
2022/08/25 14:31:31;;;;;;;9.23;6.50;;;;;;;26.22;47.86;94735.75;6129952;28;104870;-57
2022/08/25 14:34:36;;;;;;;15.63;5.93;;;;;;;26.22;46.77;94730.41;6138453;28;103002;-59
2022/08/25 14:37:41;;;;;;;10.13;6.17;;;;;;;26.22;46.72;94729.63;6138942;28;103023;-59
2022/08/25 14:40:45;;;;;;;12.10;6.10;;;;;;;26.19;46.47;94723.00;6139054;28;104066;-59
2022/08/25 14:43:50;;;;;;;13.37;5.30;;;;;;;26.19;45.92;94725.69;6128281;28;104045;-57
2022/08/25 14:46:56;;;;;;;22.13;6.07;;;;;;;26.18;44.85;94724.13;6138949;28;103159;-59
2022/08/25 14:50:01;;;;;;;14.43;5.30;;;;;;;26.18;45.19;94723.34;6138632;28;103326;-58
2022/08/25 14:53:05;;;;;;;13.50;6.33;;;;;;;26.16;45.15;94721.00;6138701;28;102964;-58
2022/08/25 14:56:10;;;;;;;9.83;5.37;;;;;;;26.13;44.74;94724.38;6127982;28;103224;-59
2022/08/25 14:59:17;;;;;;;9.77;5.73;;;;;;;26.13;45.07;94726.28;6138954;28;103161;-59
2022/08/25 15:02:23;;;;;;;11.97;5.90;;;;;;;26.11;44.57;94723.94;6139035;28;102991;-59
2022/08/25 15:05:32;;;;;;;11.03;5.37;;;;;;;26.13;44.85;94731.63;6128505;28;103170;-63
2022/08/25 15:11:56;;;;;;;13.20;5.50;;;;;;;26.13;45.02;94731.63;6135169;28;103188;-59
2022/08/25 15:15:01;;;;;;;14.00;5.57;;;;;;;26.08;44.80;94729.97;6135327;28;103184;-59
2022/08/25 15:18:05;;;;;;;14.57;6.40;;;;;;;26.08;44.59;94740.72;6127625;28;105060;-59
2022/08/25 15:21:08;;;;;;;10.43;5.10;;;;;;;26.06;44.82;94734.91;6138381;28;104373;-59
2022/08/25 15:24:13;;;;;;;11.90;5.10;;;;;;;26.07;45.14;94738.38;6137624;28;104314;-59
2022/08/25 15:27:21;;;;;;;7.50;5.60;;;;;;;26.06;45.53;94732.22;6133583;28;104520;-60
2022/08/25 15:30:26;;;;;;;11.00;5.47;;;;;;;26.11;45.28;94731.97;6131856;28;103492;-59
2022/08/25 15:33:33;;;;;;;9.07;4.80;;;;;;;26.13;45.51;94737.78;6129491;28;104250;-60
2022/08/25 15:36:36;;;;;;;13.97;5.13;;;;;;;26.11;45.19;94737.34;6130599;28;103584;-58
2022/08/25 15:39:41;;;;;;;11.57;6.27;;;;;;;26.12;45.22;94736.22;6126879;28;104016;-57
2022/08/25 15:42:46;;;;;;;12.23;6.83;;;;;;;26.15;45.34;94743.59;6131113;28;104315;-59
2022/08/25 15:45:51;;;;;;;11.70;6.23;;;;;;;26.11;45.43;94740.03;6125719;28;103945;-57
2022/08/25 15:48:54;;;;;;;16.17;7.40;;;;;;;26.12;45.88;94730.84;6120361;28;103959;-60
2022/08/25 15:52:02;;;;;;;13.00;6.60;;;;;;;26.11;45.66;94740.03;6118629;28;103440;-59
2022/08/25 15:55:07;;;;;;;8.90;5.93;;;;;;;26.11;45.68;94733.88;6119594;28;104206;-60
2022/08/25 15:58:11;;;;;;;7.27;6.20;;;;;;;26.12;45.82;94724.72;6118353;28;104854;-59
2022/08/25 16:01:18;;;;;;;12.37;6.33;;;;;;;26.11;45.76;94725.84;6136322;28;104825;-69
2022/08/25 16:04:22;;;;;;;10.43;5.80;;;;;;;26.12;45.43;94727.41;6249524;22;104477;-75
2022/08/25 16:07:25;;;;;;;10.40;6.43;;;;;;;26.11;45.58;94723.94;6197966;22;105285;-67
2022/08/25 16:10:28;;;;;;;17.17;6.70;;;;;;;26.11;46.36;94720.47;6163930;28;103304;-66
2022/08/25 16:13:33;;;;;;;17.83;6.50;;;;;;;26.12;46.68;94730.84;6160912;28;103657;-65
2022/08/25 16:16:38;;;;;;;12.17;6.67;;;;;;;26.13;46.68;94732.41;6159969;28;104192;-64
2022/08/25 16:19:42;;;;;;;9.60;5.70;;;;;;;26.13;47.09;94728.97;6164727;28;103605;-65
2022/08/25 16:22:46;;;;;;;10.20;6.50;;;;;;;26.11;47.76;94726.63;6161743;28;103588;-65
2022/08/25 16:25:49;;;;;;;9.47;6.73;;;;;;;26.11;47.94;94731.97;6153389;28;103484;-65
2022/08/25 16:28:53;;;;;;;13.20;8.57;;;;;;;26.13;47.58;94729.75;6159424;28;104377;-65
2022/08/25 16:31:58;;;;;;;15.83;8.93;;;;;;;26.12;47.67;94725.50;6161604;28;102743;-65
2022/08/25 16:35:07;;;;;;;11.03;8.43;;;;;;;26.12;47.70;94727.41;6143602;28;103260;-65
2022/08/25 16:38:13;;;;;;;9.87;8.07;;;;;;;26.10;47.77;94725.06;6131355;28;103390;-65
2022/08/25 16:41:18;;;;;;;9.93;7.87;;;;;;;26.13;47.95;94729.75;6159929;28;102967;-65
2022/08/25 16:44:23;;;;;;;10.17;7.77;;;;;;;26.17;47.81;94727.94;6161021;28;104262;-66
2022/08/25 16:47:29;;;;;;;10.43;6.93;;;;;;;26.24;47.94;94733.53;6164360;28;102805;-63
2022/08/25 16:50:32;;;;;;;17.80;11.47;;;;;;;26.25;47.27;94739.66;6155267;28;103852;-66
2022/08/25 16:56:57;;;;;;;14.23;10.43;;;;;;;26.31;47.57;94748.25;6155766;28;103199;-66
2022/08/25 17:00:00;;;;;;;13.53;11.03;;;;;;;26.37;46.87;94750.34;6145956;28;102985;-64
2022/08/25 17:03:06;;;;;;;18.97;12.30;;;;;;;26.36;47.14;94756.81;6157551;28;103826;-66
2022/08/25 17:06:09;;;;;;;18.47;14.03;;;;;;;26.37;47.09;94752.25;6147610;28;103978;-64
2022/08/25 17:09:14;;;;;;;17.60;15.60;;;;;;;26.39;47.28;94750.03;6134871;28;103080;-66
2022/08/25 17:12:24;;;;;;;22.10;15.43;;;;;;;26.39;47.85;94758.06;6125563;28;103994;-66
2022/08/25 17:15:28;;;;;;;20.30;15.13;;;;;;;26.42;47.39;94757.38;6137256;28;103605;-65
2022/08/25 17:18:35;;;;;;;18.73;13.50;;;;;;;26.40;47.71;94757.72;6136801;28;103297;-63
2022/08/25 17:21:41;;;;;;;17.10;13.17;;;;;;;26.38;47.21;94751.13;6135359;28;105447;-65
2022/08/25 17:24:50;;;;;;;16.67;12.03;;;;;;;26.39;47.24;94756.19;6126564;28;106238;-65
2022/08/25 17:28:04;;;;;;;14.80;12.40;;;;;;;26.42;47.55;94752.81;6136956;28;103148;-64
2022/08/25 17:31:08;;;;;;;16.60;12.90;;;;;;;26.39;47.56;94750.03;6118534;28;103153;-66
2022/08/25 17:34:14;;;;;;;19.00;14.20;;;;;;;26.26;47.24;94758.09;6130940;28;103298;-65
2022/08/25 17:37:18;;;;;;;19.03;9.50;;;;;;;26.10;47.05;94759.94;6132177;28;103133;-64